sensor_id;sensor_type;location;lat;lon;timestamp;P1;durP1;ratioP1;P2;durP2;ratioP2
4232;SDS011;2130;48.472;11.934;2022-10-16T00:01:25;1.97;;;1.60;;
4232;SDS011;2130;48.472;11.934;2022-10-16T00:03:54;1.57;;;1.20;;
4232;SDS011;2130;48.472;11.934;2022-10-16T00:06:24;2.73;;;1.20;;
4232;SDS011;2130;48.472;11.934;2022-10-16T00:08:52;1.73;;;1.57;;
4232;SDS011;2130;48.472;11.934;2022-10-16T00:11:22;2.17;;;1.60;;
4232;SDS011;2130;48.472;11.934;2022-10-16T00:13:54;1.10;;;1.07;;
4232;SDS011;2130;48.472;11.934;2022-10-16T00:16:23;1.30;;;1.20;;
4232;SDS011;2130;48.472;11.934;2022-10-16T00:18:51;1.20;;;1.10;;
4232;SDS011;2130;48.472;11.934;2022-10-16T00:21:20;1.50;;;1.40;;
4232;SDS011;2130;48.472;11.934;2022-10-16T00:24:10;1.30;;;1.20;;
4232;SDS011;2130;48.472;11.934;2022-10-16T00:26:38;2.70;;;1.40;;
4232;SDS011;2130;48.472;11.934;2022-10-16T00:29:07;2.30;;;1.90;;
4232;SDS011;2130;48.472;11.934;2022-10-16T00:31:35;1.40;;;1.30;;
4232;SDS011;2130;48.472;11.934;2022-10-16T00:34:03;1.73;;;1.20;;
4232;SDS011;2130;48.472;11.934;2022-10-16T00:36:31;1.63;;;1.23;;
4232;SDS011;2130;48.472;11.934;2022-10-16T00:39:00;1.50;;;1.27;;
4232;SDS011;2130;48.472;11.934;2022-10-16T00:41:30;2.13;;;1.50;;
4232;SDS011;2130;48.472;11.934;2022-10-16T00:43:59;1.00;;;1.00;;
4232;SDS011;2130;48.472;11.934;2022-10-16T00:46:28;1.37;;;1.27;;
4232;SDS011;2130;48.472;11.934;2022-10-16T00:49:01;1.40;;;1.30;;
4232;SDS011;2130;48.472;11.934;2022-10-16T00:51:33;1.60;;;1.40;;
4232;SDS011;2130;48.472;11.934;2022-10-16T00:54:02;1.50;;;1.20;;
4232;SDS011;2130;48.472;11.934;2022-10-16T00:56:33;1.47;;;1.37;;
4232;SDS011;2130;48.472;11.934;2022-10-16T00:59:02;1.47;;;1.37;;
4232;SDS011;2130;48.472;11.934;2022-10-16T01:01:31;2.10;;;1.70;;
4232;SDS011;2130;48.472;11.934;2022-10-16T01:03:59;2.17;;;1.53;;
4232;SDS011;2130;48.472;11.934;2022-10-16T01:06:29;2.80;;;1.37;;
4232;SDS011;2130;48.472;11.934;2022-10-16T01:09:07;1.20;;;1.10;;
4232;SDS011;2130;48.472;11.934;2022-10-16T01:11:44;1.30;;;1.20;;
4232;SDS011;2130;48.472;11.934;2022-10-16T01:14:18;1.43;;;1.33;;
4232;SDS011;2130;48.472;11.934;2022-10-16T01:16:49;1.67;;;1.50;;
4232;SDS011;2130;48.472;11.934;2022-10-16T01:19:25;1.70;;;1.30;;
4232;SDS011;2130;48.472;11.934;2022-10-16T01:22:04;1.30;;;1.20;;
4232;SDS011;2130;48.472;11.934;2022-10-16T01:24:37;1.20;;;1.10;;
4232;SDS011;2130;48.472;11.934;2022-10-16T01:27:09;1.40;;;1.30;;
4232;SDS011;2130;48.472;11.934;2022-10-16T01:29:39;1.60;;;0.97;;
4232;SDS011;2130;48.472;11.934;2022-10-16T01:32:11;1.43;;;1.23;;
4232;SDS011;2130;48.472;11.934;2022-10-16T01:34:45;1.10;;;1.00;;
4232;SDS011;2130;48.472;11.934;2022-10-16T01:37:18;1.13;;;1.00;;
4232;SDS011;2130;48.472;11.934;2022-10-16T01:40:05;1.20;;;1.10;;
4232;SDS011;2130;48.472;11.934;2022-10-16T01:42:38;1.27;;;1.17;;
4232;SDS011;2130;48.472;11.934;2022-10-16T01:45:08;1.13;;;1.03;;
4232;SDS011;2130;48.472;11.934;2022-10-16T01:47:39;0.90;;;0.90;;
4232;SDS011;2130;48.472;11.934;2022-10-16T01:50:10;1.13;;;1.03;;
4232;SDS011;2130;48.472;11.934;2022-10-16T01:52:41;0.90;;;0.90;;
4232;SDS011;2130;48.472;11.934;2022-10-16T01:55:12;1.20;;;1.10;;
4232;SDS011;2130;48.472;11.934;2022-10-16T01:57:45;1.13;;;1.00;;
4232;SDS011;2130;48.472;11.934;2022-10-16T02:00:15;1.57;;;0.90;;
4232;SDS011;2130;48.472;11.934;2022-10-16T02:02:46;1.13;;;0.80;;
4232;SDS011;2130;48.472;11.934;2022-10-16T02:05:18;1.83;;;1.10;;
4232;SDS011;2130;48.472;11.934;2022-10-16T02:07:48;1.03;;;0.93;;
4232;SDS011;2130;48.472;11.934;2022-10-16T02:10:16;1.10;;;1.00;;
4232;SDS011;2130;48.472;11.934;2022-10-16T02:12:48;1.23;;;0.97;;
4232;SDS011;2130;48.472;11.934;2022-10-16T02:15:18;1.37;;;1.00;;
4232;SDS011;2130;48.472;11.934;2022-10-16T02:17:46;3.73;;;1.10;;
4232;SDS011;2130;48.472;11.934;2022-10-16T02:20:14;0.90;;;0.90;;
4232;SDS011;2130;48.472;11.934;2022-10-16T02:22:43;0.80;;;0.80;;
4232;SDS011;2130;48.472;11.934;2022-10-16T02:25:15;0.90;;;0.80;;
4232;SDS011;2130;48.472;11.934;2022-10-16T02:27:49;1.13;;;1.03;;
4232;SDS011;2130;48.472;11.934;2022-10-16T02:30:21;1.63;;;1.00;;
4232;SDS011;2130;48.472;11.934;2022-10-16T02:32:51;0.90;;;0.90;;
4232;SDS011;2130;48.472;11.934;2022-10-16T02:35:21;1.17;;;1.00;;
4232;SDS011;2130;48.472;11.934;2022-10-16T02:37:49;0.80;;;0.80;;
4232;SDS011;2130;48.472;11.934;2022-10-16T02:40:18;0.80;;;0.70;;
4232;SDS011;2130;48.472;11.934;2022-10-16T02:42:52;1.00;;;1.00;;
4232;SDS011;2130;48.472;11.934;2022-10-16T02:45:21;1.00;;;0.90;;
4232;SDS011;2130;48.472;11.934;2022-10-16T02:47:50;0.93;;;0.80;;
4232;SDS011;2130;48.472;11.934;2022-10-16T02:50:18;0.97;;;0.93;;
4232;SDS011;2130;48.472;11.934;2022-10-16T02:52:46;0.93;;;0.93;;
4232;SDS011;2130;48.472;11.934;2022-10-16T02:55:14;0.90;;;0.90;;
4232;SDS011;2130;48.472;11.934;2022-10-16T02:57:42;0.90;;;0.90;;
4232;SDS011;2130;48.472;11.934;2022-10-16T03:00:13;0.77;;;0.77;;
4232;SDS011;2130;48.472;11.934;2022-10-16T03:02:42;1.00;;;0.80;;
4232;SDS011;2130;48.472;11.934;2022-10-16T03:05:11;0.90;;;0.90;;
4232;SDS011;2130;48.472;11.934;2022-10-16T03:07:39;0.87;;;0.80;;
4232;SDS011;2130;48.472;11.934;2022-10-16T03:10:07;1.87;;;1.03;;
4232;SDS011;2130;48.472;11.934;2022-10-16T03:12:36;1.10;;;0.90;;
4232;SDS011;2130;48.472;11.934;2022-10-16T03:15:04;1.67;;;1.20;;
4232;SDS011;2130;48.472;11.934;2022-10-16T03:17:34;1.10;;;1.10;;
4232;SDS011;2130;48.472;11.934;2022-10-16T03:20:03;1.10;;;0.97;;
4232;SDS011;2130;48.472;11.934;2022-10-16T03:22:31;1.00;;;1.00;;
4232;SDS011;2130;48.472;11.934;2022-10-16T03:24:59;1.47;;;1.10;;
4232;SDS011;2130;48.472;11.934;2022-10-16T03:27:27;1.93;;;0.93;;
4232;SDS011;2130;48.472;11.934;2022-10-16T03:29:55;2.20;;;1.00;;
4232;SDS011;2130;48.472;11.934;2022-10-16T03:32:23;1.10;;;0.90;;
4232;SDS011;2130;48.472;11.934;2022-10-16T03:34:53;1.07;;;1.07;;
4232;SDS011;2130;48.472;11.934;2022-10-16T03:37:23;0.80;;;0.80;;
4232;SDS011;2130;48.472;11.934;2022-10-16T03:39:51;0.90;;;0.90;;
4232;SDS011;2130;48.472;11.934;2022-10-16T03:42:19;1.57;;;0.87;;
4232;SDS011;2130;48.472;11.934;2022-10-16T03:44:47;0.80;;;0.80;;
4232;SDS011;2130;48.472;11.934;2022-10-16T03:47:16;0.80;;;0.80;;
4232;SDS011;2130;48.472;11.934;2022-10-16T03:49:47;0.80;;;0.80;;
4232;SDS011;2130;48.472;11.934;2022-10-16T03:52:16;1.10;;;0.90;;
4232;SDS011;2130;48.472;11.934;2022-10-16T03:54:49;0.90;;;0.90;;
4232;SDS011;2130;48.472;11.934;2022-10-16T03:57:17;0.90;;;0.90;;
4232;SDS011;2130;48.472;11.934;2022-10-16T03:59:47;2.03;;;1.00;;
4232;SDS011;2130;48.472;11.934;2022-10-16T04:02:15;1.20;;;1.10;;
4232;SDS011;2130;48.472;11.934;2022-10-16T04:04:43;1.20;;;0.97;;
4232;SDS011;2130;48.472;11.934;2022-10-16T04:07:11;0.80;;;0.80;;
4232;SDS011;2130;48.472;11.934;2022-10-16T04:09:40;0.80;;;0.80;;
4232;SDS011;2130;48.472;11.934;2022-10-16T04:12:08;1.77;;;1.10;;
4232;SDS011;2130;48.472;11.934;2022-10-16T04:14:36;1.53;;;1.10;;
4232;SDS011;2130;48.472;11.934;2022-10-16T04:17:04;0.87;;;0.87;;
4232;SDS011;2130;48.472;11.934;2022-10-16T04:19:32;0.70;;;0.70;;
4232;SDS011;2130;48.472;11.934;2022-10-16T04:22:00;0.90;;;0.80;;
4232;SDS011;2130;48.472;11.934;2022-10-16T04:24:28;0.80;;;0.80;;
4232;SDS011;2130;48.472;11.934;2022-10-16T04:26:57;1.00;;;0.90;;
4232;SDS011;2130;48.472;11.934;2022-10-16T04:29:25;0.90;;;0.90;;
4232;SDS011;2130;48.472;11.934;2022-10-16T04:31:53;0.80;;;0.80;;
4232;SDS011;2130;48.472;11.934;2022-10-16T04:34:22;1.00;;;1.00;;
4232;SDS011;2130;48.472;11.934;2022-10-16T04:36:50;1.10;;;1.00;;
4232;SDS011;2130;48.472;11.934;2022-10-16T04:39:18;0.90;;;0.90;;
4232;SDS011;2130;48.472;11.934;2022-10-16T04:41:46;0.87;;;0.83;;
4232;SDS011;2130;48.472;11.934;2022-10-16T04:44:15;1.17;;;0.90;;
4232;SDS011;2130;48.472;11.934;2022-10-16T04:46:43;0.80;;;0.80;;
4232;SDS011;2130;48.472;11.934;2022-10-16T04:49:12;0.80;;;0.80;;
4232;SDS011;2130;48.472;11.934;2022-10-16T04:51:40;0.83;;;0.83;;
4232;SDS011;2130;48.472;11.934;2022-10-16T04:54:08;1.00;;;0.80;;
4232;SDS011;2130;48.472;11.934;2022-10-16T04:56:36;3.03;;;1.00;;
4232;SDS011;2130;48.472;11.934;2022-10-16T04:59:09;1.00;;;0.90;;
4232;SDS011;2130;48.472;11.934;2022-10-16T05:01:39;0.80;;;0.80;;
4232;SDS011;2130;48.472;11.934;2022-10-16T05:04:07;1.87;;;0.97;;
4232;SDS011;2130;48.472;11.934;2022-10-16T05:06:35;0.90;;;0.90;;
4232;SDS011;2130;48.472;11.934;2022-10-16T05:09:03;1.20;;;1.10;;
4232;SDS011;2130;48.472;11.934;2022-10-16T05:11:31;1.13;;;1.07;;
4232;SDS011;2130;48.472;11.934;2022-10-16T05:13:59;1.27;;;1.00;;
4232;SDS011;2130;48.472;11.934;2022-10-16T05:16:28;2.27;;;1.27;;
4232;SDS011;2130;48.472;11.934;2022-10-16T05:18:59;1.00;;;1.00;;
4232;SDS011;2130;48.472;11.934;2022-10-16T05:21:46;1.33;;;1.07;;
4232;SDS011;2130;48.472;11.934;2022-10-16T05:24:14;1.13;;;0.87;;
4232;SDS011;2130;48.472;11.934;2022-10-16T05:26:43;0.93;;;0.87;;
4232;SDS011;2130;48.472;11.934;2022-10-16T05:29:11;1.27;;;1.17;;
4232;SDS011;2130;48.472;11.934;2022-10-16T05:31:39;1.53;;;1.00;;
4232;SDS011;2130;48.472;11.934;2022-10-16T05:34:08;1.20;;;1.10;;
4232;SDS011;2130;48.472;11.934;2022-10-16T05:36:36;0.90;;;0.90;;
4232;SDS011;2130;48.472;11.934;2022-10-16T05:39:04;0.77;;;0.77;;
4232;SDS011;2130;48.472;11.934;2022-10-16T05:41:33;1.43;;;1.10;;
4232;SDS011;2130;48.472;11.934;2022-10-16T05:44:03;1.33;;;1.00;;
4232;SDS011;2130;48.472;11.934;2022-10-16T05:46:31;1.03;;;0.93;;
4232;SDS011;2130;48.472;11.934;2022-10-16T05:49:00;1.10;;;1.00;;
4232;SDS011;2130;48.472;11.934;2022-10-16T05:51:29;1.33;;;1.10;;
4232;SDS011;2130;48.472;11.934;2022-10-16T05:53:57;2.13;;;1.33;;
4232;SDS011;2130;48.472;11.934;2022-10-16T05:56:25;2.10;;;1.07;;
4232;SDS011;2130;48.472;11.934;2022-10-16T05:58:53;1.50;;;1.13;;
4232;SDS011;2130;48.472;11.934;2022-10-16T06:01:21;1.20;;;1.10;;
4232;SDS011;2130;48.472;11.934;2022-10-16T06:03:51;1.37;;;1.27;;
4232;SDS011;2130;48.472;11.934;2022-10-16T06:06:21;2.20;;;1.60;;
4232;SDS011;2130;48.472;11.934;2022-10-16T06:08:53;1.63;;;1.23;;
4232;SDS011;2130;48.472;11.934;2022-10-16T06:11:23;1.43;;;1.27;;
4232;SDS011;2130;48.472;11.934;2022-10-16T06:13:52;1.33;;;1.13;;
4232;SDS011;2130;48.472;11.934;2022-10-16T06:16:23;1.00;;;1.00;;
4232;SDS011;2130;48.472;11.934;2022-10-16T06:18:51;1.67;;;1.20;;
4232;SDS011;2130;48.472;11.934;2022-10-16T06:21:20;2.20;;;1.60;;
4232;SDS011;2130;48.472;11.934;2022-10-16T06:23:51;1.83;;;1.40;;
4232;SDS011;2130;48.472;11.934;2022-10-16T06:26:21;1.53;;;1.43;;
4232;SDS011;2130;48.472;11.934;2022-10-16T06:28:50;1.63;;;1.50;;
4232;SDS011;2130;48.472;11.934;2022-10-16T06:31:18;1.47;;;1.37;;
4232;SDS011;2130;48.472;11.934;2022-10-16T06:33:49;2.20;;;1.53;;
4232;SDS011;2130;48.472;11.934;2022-10-16T06:36:18;1.80;;;1.17;;
4232;SDS011;2130;48.472;11.934;2022-10-16T06:38:46;1.37;;;1.27;;
4232;SDS011;2130;48.472;11.934;2022-10-16T06:41:15;1.87;;;1.73;;
4232;SDS011;2130;48.472;11.934;2022-10-16T06:43:45;1.50;;;1.30;;
4232;SDS011;2130;48.472;11.934;2022-10-16T06:46:14;1.20;;;1.10;;
4232;SDS011;2130;48.472;11.934;2022-10-16T06:48:43;2.33;;;1.60;;
4232;SDS011;2130;48.472;11.934;2022-10-16T06:51:12;1.87;;;1.53;;
4232;SDS011;2130;48.472;11.934;2022-10-16T06:53:41;1.60;;;1.50;;
4232;SDS011;2130;48.472;11.934;2022-10-16T06:56:28;2.03;;;1.70;;
4232;SDS011;2130;48.472;11.934;2022-10-16T06:58:59;3.20;;;1.50;;
4232;SDS011;2130;48.472;11.934;2022-10-16T07:01:28;1.37;;;1.27;;
4232;SDS011;2130;48.472;11.934;2022-10-16T07:03:56;1.10;;;1.00;;
4232;SDS011;2130;48.472;11.934;2022-10-16T07:06:25;1.70;;;1.60;;
4232;SDS011;2130;48.472;11.934;2022-10-16T07:08:53;1.17;;;1.17;;
4232;SDS011;2130;48.472;11.934;2022-10-16T07:11:22;1.40;;;1.30;;
4232;SDS011;2130;48.472;11.934;2022-10-16T07:13:51;1.30;;;1.20;;
4232;SDS011;2130;48.472;11.934;2022-10-16T07:16:23;1.27;;;1.20;;
4232;SDS011;2130;48.472;11.934;2022-10-16T07:18:53;1.80;;;1.70;;
4232;SDS011;2130;48.472;11.934;2022-10-16T07:21:25;1.30;;;1.20;;
4232;SDS011;2130;48.472;11.934;2022-10-16T07:23:55;1.50;;;1.20;;
4232;SDS011;2130;48.472;11.934;2022-10-16T07:26:25;1.53;;;1.43;;
4232;SDS011;2130;48.472;11.934;2022-10-16T07:28:54;3.07;;;1.73;;
4232;SDS011;2130;48.472;11.934;2022-10-16T07:31:24;1.73;;;1.63;;
4232;SDS011;2130;48.472;11.934;2022-10-16T07:33:53;2.70;;;1.70;;
4232;SDS011;2130;48.472;11.934;2022-10-16T07:36:22;1.33;;;1.23;;
4232;SDS011;2130;48.472;11.934;2022-10-16T07:38:50;2.30;;;1.63;;
4232;SDS011;2130;48.472;11.934;2022-10-16T07:41:24;1.60;;;1.50;;
4232;SDS011;2130;48.472;11.934;2022-10-16T07:43:52;2.30;;;1.53;;
4232;SDS011;2130;48.472;11.934;2022-10-16T07:46:21;2.83;;;1.70;;
4232;SDS011;2130;48.472;11.934;2022-10-16T07:48:51;1.60;;;1.50;;
4232;SDS011;2130;48.472;11.934;2022-10-16T07:51:21;1.63;;;1.53;;
4232;SDS011;2130;48.472;11.934;2022-10-16T07:53:49;2.17;;;1.67;;
4232;SDS011;2130;48.472;11.934;2022-10-16T07:56:18;2.77;;;1.77;;
4232;SDS011;2130;48.472;11.934;2022-10-16T07:58:47;1.77;;;1.60;;
4232;SDS011;2130;48.472;11.934;2022-10-16T08:01:17;2.37;;;1.63;;
4232;SDS011;2130;48.472;11.934;2022-10-16T08:03:46;2.63;;;2.10;;
4232;SDS011;2130;48.472;11.934;2022-10-16T08:06:16;2.37;;;1.43;;
4232;SDS011;2130;48.472;11.934;2022-10-16T08:08:50;2.90;;;1.40;;
4232;SDS011;2130;48.472;11.934;2022-10-16T08:11:18;2.27;;;1.53;;
4232;SDS011;2130;48.472;11.934;2022-10-16T08:13:46;1.37;;;1.27;;
4232;SDS011;2130;48.472;11.934;2022-10-16T08:16:14;1.50;;;1.23;;
4232;SDS011;2130;48.472;11.934;2022-10-16T08:18:43;1.40;;;1.20;;
4232;SDS011;2130;48.472;11.934;2022-10-16T08:21:12;0.90;;;0.90;;
4232;SDS011;2130;48.472;11.934;2022-10-16T08:23:48;1.23;;;1.13;;
4232;SDS011;2130;48.472;11.934;2022-10-16T08:26:23;1.20;;;1.10;;
4232;SDS011;2130;48.472;11.934;2022-10-16T08:28:52;1.40;;;1.30;;
4232;SDS011;2130;48.472;11.934;2022-10-16T08:31:21;1.03;;;0.93;;
4232;SDS011;2130;48.472;11.934;2022-10-16T08:33:49;1.00;;;1.00;;
4232;SDS011;2130;48.472;11.934;2022-10-16T08:36:18;1.53;;;1.10;;
4232;SDS011;2130;48.472;11.934;2022-10-16T08:38:48;1.53;;;1.43;;
4232;SDS011;2130;48.472;11.934;2022-10-16T08:41:20;1.67;;;1.40;;
4232;SDS011;2130;48.472;11.934;2022-10-16T08:44:09;1.30;;;1.10;;
4232;SDS011;2130;48.472;11.934;2022-10-16T08:46:51;1.70;;;1.13;;
4232;SDS011;2130;48.472;11.934;2022-10-16T08:49:27;1.40;;;1.30;;
4232;SDS011;2130;48.472;11.934;2022-10-16T08:51:55;1.43;;;1.17;;
4232;SDS011;2130;48.472;11.934;2022-10-16T08:54:28;1.53;;;1.43;;
4232;SDS011;2130;48.472;11.934;2022-10-16T08:56:57;1.37;;;1.27;;
4232;SDS011;2130;48.472;11.934;2022-10-16T08:59:32;1.47;;;1.30;;
4232;SDS011;2130;48.472;11.934;2022-10-16T09:02:00;1.40;;;1.20;;
4232;SDS011;2130;48.472;11.934;2022-10-16T09:04:48;1.20;;;1.10;;
4232;SDS011;2130;48.472;11.934;2022-10-16T09:07:35;1.17;;;1.00;;
4232;SDS011;2130;48.472;11.934;2022-10-16T09:10:11;1.20;;;1.10;;
4232;SDS011;2130;48.472;11.934;2022-10-16T09:12:48;1.20;;;1.10;;
4232;SDS011;2130;48.472;11.934;2022-10-16T09:15:23;2.23;;;1.63;;
4232;SDS011;2130;48.472;11.934;2022-10-16T09:17:59;2.97;;;1.43;;
4232;SDS011;2130;48.472;11.934;2022-10-16T09:20:33;1.17;;;1.03;;
4232;SDS011;2130;48.472;11.934;2022-10-16T09:23:10;0.97;;;0.90;;
4232;SDS011;2130;48.472;11.934;2022-10-16T09:25:45;1.13;;;1.03;;
4232;SDS011;2130;48.472;11.934;2022-10-16T09:28:16;1.00;;;1.00;;
4232;SDS011;2130;48.472;11.934;2022-10-16T09:30:45;1.30;;;1.20;;
4232;SDS011;2130;48.472;11.934;2022-10-16T09:33:15;1.70;;;1.37;;
4232;SDS011;2130;48.472;11.934;2022-10-16T09:35:44;1.03;;;1.03;;
4232;SDS011;2130;48.472;11.934;2022-10-16T09:38:23;1.83;;;1.30;;
4232;SDS011;2130;48.472;11.934;2022-10-16T09:40:54;1.10;;;1.00;;
4232;SDS011;2130;48.472;11.934;2022-10-16T09:43:30;1.60;;;1.23;;
4232;SDS011;2130;48.472;11.934;2022-10-16T09:46:03;1.33;;;1.23;;
4232;SDS011;2130;48.472;11.934;2022-10-16T09:48:33;1.47;;;1.10;;
4232;SDS011;2130;48.472;11.934;2022-10-16T09:51:05;0.83;;;0.83;;
4232;SDS011;2130;48.472;11.934;2022-10-16T09:53:41;1.57;;;1.47;;
4232;SDS011;2130;48.472;11.934;2022-10-16T09:56:20;2.13;;;1.30;;
4232;SDS011;2130;48.472;11.934;2022-10-16T09:58:49;1.50;;;1.30;;
4232;SDS011;2130;48.472;11.934;2022-10-16T10:01:18;1.83;;;1.33;;
4232;SDS011;2130;48.472;11.934;2022-10-16T10:03:46;1.30;;;1.20;;
4232;SDS011;2130;48.472;11.934;2022-10-16T10:06:17;1.30;;;1.20;;
4232;SDS011;2130;48.472;11.934;2022-10-16T10:08:55;2.17;;;1.50;;
4232;SDS011;2130;48.472;11.934;2022-10-16T10:11:39;1.23;;;1.07;;
4232;SDS011;2130;48.472;11.934;2022-10-16T10:14:14;1.03;;;0.97;;
4232;SDS011;2130;48.472;11.934;2022-10-16T10:16:45;1.23;;;1.13;;
4232;SDS011;2130;48.472;11.934;2022-10-16T10:19:14;1.10;;;1.00;;
4232;SDS011;2130;48.472;11.934;2022-10-16T10:21:43;1.10;;;1.00;;
4232;SDS011;2130;48.472;11.934;2022-10-16T10:24:12;0.90;;;0.90;;
4232;SDS011;2130;48.472;11.934;2022-10-16T10:26:44;1.47;;;1.37;;
4232;SDS011;2130;48.472;11.934;2022-10-16T10:29:18;1.20;;;1.03;;
4232;SDS011;2130;48.472;11.934;2022-10-16T10:31:54;1.37;;;1.27;;
4232;SDS011;2130;48.472;11.934;2022-10-16T10:34:35;1.10;;;1.00;;
4232;SDS011;2130;48.472;11.934;2022-10-16T10:37:13;1.30;;;1.20;;
4232;SDS011;2130;48.472;11.934;2022-10-16T10:39:54;1.23;;;1.03;;
4232;SDS011;2130;48.472;11.934;2022-10-16T10:42:27;1.23;;;1.13;;
4232;SDS011;2130;48.472;11.934;2022-10-16T10:45:04;1.10;;;1.00;;
4232;SDS011;2130;48.472;11.934;2022-10-16T10:47:42;0.80;;;0.80;;
4232;SDS011;2130;48.472;11.934;2022-10-16T10:50:18;0.80;;;0.80;;
4232;SDS011;2130;48.472;11.934;2022-10-16T10:52:51;1.77;;;1.37;;
4232;SDS011;2130;48.472;11.934;2022-10-16T10:55:26;1.10;;;1.00;;
4232;SDS011;2130;48.472;11.934;2022-10-16T10:58:10;1.20;;;0.97;;
4232;SDS011;2130;48.472;11.934;2022-10-16T11:00:46;0.90;;;0.90;;
4232;SDS011;2130;48.472;11.934;2022-10-16T11:03:25;1.20;;;1.10;;
4232;SDS011;2130;48.472;11.934;2022-10-16T11:06:10;1.43;;;1.03;;
4232;SDS011;2130;48.472;11.934;2022-10-16T11:08:41;1.10;;;1.00;;
4232;SDS011;2130;48.472;11.934;2022-10-16T11:11:12;1.10;;;1.00;;
4232;SDS011;2130;48.472;11.934;2022-10-16T11:13:48;1.30;;;0.90;;
4232;SDS011;2130;48.472;11.934;2022-10-16T11:16:22;1.10;;;0.97;;
4232;SDS011;2130;48.472;11.934;2022-10-16T11:18:55;1.40;;;1.30;;
4232;SDS011;2130;48.472;11.934;2022-10-16T11:21:25;1.73;;;1.23;;
4232;SDS011;2130;48.472;11.934;2022-10-16T11:23:57;1.00;;;0.90;;
4232;SDS011;2130;48.472;11.934;2022-10-16T11:26:27;1.87;;;1.20;;
4232;SDS011;2130;48.472;11.934;2022-10-16T11:28:59;0.90;;;0.90;;
4232;SDS011;2130;48.472;11.934;2022-10-16T11:31:28;1.70;;;1.17;;
4232;SDS011;2130;48.472;11.934;2022-10-16T11:34:01;1.27;;;1.03;;
4232;SDS011;2130;48.472;11.934;2022-10-16T11:36:33;0.93;;;0.90;;
4232;SDS011;2130;48.472;11.934;2022-10-16T11:39:08;1.30;;;1.20;;
4232;SDS011;2130;48.472;11.934;2022-10-16T11:41:45;0.80;;;0.80;;
4232;SDS011;2130;48.472;11.934;2022-10-16T11:44:18;3.27;;;0.90;;
4232;SDS011;2130;48.472;11.934;2022-10-16T11:46:53;0.80;;;0.80;;
4232;SDS011;2130;48.472;11.934;2022-10-16T11:49:46;0.90;;;0.90;;
4232;SDS011;2130;48.472;11.934;2022-10-16T11:52:16;1.30;;;1.00;;
4232;SDS011;2130;48.472;11.934;2022-10-16T11:54:49;0.80;;;0.80;;
4232;SDS011;2130;48.472;11.934;2022-10-16T11:57:21;0.80;;;0.80;;
4232;SDS011;2130;48.472;11.934;2022-10-16T11:59:54;1.13;;;0.90;;
4232;SDS011;2130;48.472;11.934;2022-10-16T12:02:30;0.80;;;0.80;;
4232;SDS011;2130;48.472;11.934;2022-10-16T12:05:06;0.70;;;0.70;;
4232;SDS011;2130;48.472;11.934;2022-10-16T12:07:41;0.83;;;0.80;;
4232;SDS011;2130;48.472;11.934;2022-10-16T12:10:19;1.77;;;0.90;;
4232;SDS011;2130;48.472;11.934;2022-10-16T12:12:53;0.87;;;0.80;;
4232;SDS011;2130;48.472;11.934;2022-10-16T12:15:25;1.67;;;0.70;;
4232;SDS011;2130;48.472;11.934;2022-10-16T12:18:20;0.80;;;0.80;;
4232;SDS011;2130;48.472;11.934;2022-10-16T12:20:54;0.80;;;0.80;;
4232;SDS011;2130;48.472;11.934;2022-10-16T12:23:25;1.20;;;1.10;;
4232;SDS011;2130;48.472;11.934;2022-10-16T12:25:53;1.63;;;0.90;;
4232;SDS011;2130;48.472;11.934;2022-10-16T12:28:22;0.80;;;0.80;;
4232;SDS011;2130;48.472;11.934;2022-10-16T12:30:57;0.70;;;0.70;;
4232;SDS011;2130;48.472;11.934;2022-10-16T12:33:27;0.70;;;0.70;;
4232;SDS011;2130;48.472;11.934;2022-10-16T12:35:56;0.90;;;0.83;;
4232;SDS011;2130;48.472;11.934;2022-10-16T12:38:25;0.80;;;0.73;;
4232;SDS011;2130;48.472;11.934;2022-10-16T12:40:55;0.80;;;0.70;;
4232;SDS011;2130;48.472;11.934;2022-10-16T12:43:27;1.57;;;0.90;;
4232;SDS011;2130;48.472;11.934;2022-10-16T12:46:18;0.73;;;0.73;;
4232;SDS011;2130;48.472;11.934;2022-10-16T12:48:49;0.70;;;0.70;;
4232;SDS011;2130;48.472;11.934;2022-10-16T12:51:35;0.73;;;0.70;;
4232;SDS011;2130;48.472;11.934;2022-10-16T12:54:04;0.70;;;0.70;;
4232;SDS011;2130;48.472;11.934;2022-10-16T12:56:41;0.80;;;0.70;;
4232;SDS011;2130;48.472;11.934;2022-10-16T12:59:17;0.60;;;0.60;;
4232;SDS011;2130;48.472;11.934;2022-10-16T13:01:56;0.70;;;0.70;;
4232;SDS011;2130;48.472;11.934;2022-10-16T13:04:49;1.07;;;0.97;;
4232;SDS011;2130;48.472;11.934;2022-10-16T13:07:40;0.80;;;0.70;;
4232;SDS011;2130;48.472;11.934;2022-10-16T13:10:18;0.90;;;0.80;;
4232;SDS011;2130;48.472;11.934;2022-10-16T13:13:01;0.90;;;0.90;;
4232;SDS011;2130;48.472;11.934;2022-10-16T13:15:41;0.80;;;0.70;;
4232;SDS011;2130;48.472;11.934;2022-10-16T13:18:18;0.73;;;0.70;;
4232;SDS011;2130;48.472;11.934;2022-10-16T13:20:56;0.80;;;0.80;;
4232;SDS011;2130;48.472;11.934;2022-10-16T13:23:33;0.70;;;0.70;;
4232;SDS011;2130;48.472;11.934;2022-10-16T13:26:07;0.70;;;0.70;;
4232;SDS011;2130;48.472;11.934;2022-10-16T13:28:41;1.30;;;0.97;;
4232;SDS011;2130;48.472;11.934;2022-10-16T13:31:11;0.60;;;0.60;;
4232;SDS011;2130;48.472;11.934;2022-10-16T13:33:45;0.80;;;0.80;;
4232;SDS011;2130;48.472;11.934;2022-10-16T13:36:18;0.80;;;0.80;;
4232;SDS011;2130;48.472;11.934;2022-10-16T13:38:48;0.80;;;0.80;;
4232;SDS011;2130;48.472;11.934;2022-10-16T13:41:16;0.73;;;0.73;;
4232;SDS011;2130;48.472;11.934;2022-10-16T13:43:46;0.80;;;0.80;;
4232;SDS011;2130;48.472;11.934;2022-10-16T13:46:18;0.70;;;0.70;;
4232;SDS011;2130;48.472;11.934;2022-10-16T13:48:57;0.70;;;0.67;;
4232;SDS011;2130;48.472;11.934;2022-10-16T13:51:25;0.80;;;0.80;;
4232;SDS011;2130;48.472;11.934;2022-10-16T13:53:54;0.90;;;0.70;;
4232;SDS011;2130;48.472;11.934;2022-10-16T13:56:24;1.17;;;1.00;;
4232;SDS011;2130;48.472;11.934;2022-10-16T13:58:59;1.77;;;0.70;;
4232;SDS011;2130;48.472;11.934;2022-10-16T14:01:29;0.90;;;0.80;;
4232;SDS011;2130;48.472;11.934;2022-10-16T14:04:04;1.53;;;0.80;;
4232;SDS011;2130;48.472;11.934;2022-10-16T14:06:32;0.60;;;0.60;;
4232;SDS011;2130;48.472;11.934;2022-10-16T14:09:02;0.87;;;0.80;;
4232;SDS011;2130;48.472;11.934;2022-10-16T14:11:33;0.60;;;0.60;;
4232;SDS011;2130;48.472;11.934;2022-10-16T14:14:09;0.80;;;0.80;;
4232;SDS011;2130;48.472;11.934;2022-10-16T14:16:38;1.00;;;0.70;;
4232;SDS011;2130;48.472;11.934;2022-10-16T14:19:15;0.60;;;0.60;;
4232;SDS011;2130;48.472;11.934;2022-10-16T14:21:46;0.63;;;0.63;;
4232;SDS011;2130;48.472;11.934;2022-10-16T14:24:22;0.73;;;0.60;;
4232;SDS011;2130;48.472;11.934;2022-10-16T14:26:53;0.73;;;0.70;;
4232;SDS011;2130;48.472;11.934;2022-10-16T14:29:23;0.60;;;0.60;;
4232;SDS011;2130;48.472;11.934;2022-10-16T14:31:56;0.60;;;0.60;;
4232;SDS011;2130;48.472;11.934;2022-10-16T14:34:27;0.80;;;0.80;;
4232;SDS011;2130;48.472;11.934;2022-10-16T14:36:59;0.70;;;0.60;;
4232;SDS011;2130;48.472;11.934;2022-10-16T14:39:38;1.73;;;0.80;;
4232;SDS011;2130;48.472;11.934;2022-10-16T14:42:11;2.93;;;0.80;;
4232;SDS011;2130;48.472;11.934;2022-10-16T14:44:41;0.93;;;0.70;;
4232;SDS011;2130;48.472;11.934;2022-10-16T14:47:12;0.73;;;0.73;;
4232;SDS011;2130;48.472;11.934;2022-10-16T14:49:42;0.70;;;0.70;;
4232;SDS011;2130;48.472;11.934;2022-10-16T14:52:10;0.60;;;0.60;;
4232;SDS011;2130;48.472;11.934;2022-10-16T14:54:39;0.60;;;0.60;;
4232;SDS011;2130;48.472;11.934;2022-10-16T14:57:15;0.60;;;0.60;;
4232;SDS011;2130;48.472;11.934;2022-10-16T14:59:44;0.60;;;0.60;;
4232;SDS011;2130;48.472;11.934;2022-10-16T15:02:16;0.80;;;0.80;;
4232;SDS011;2130;48.472;11.934;2022-10-16T15:04:48;1.00;;;0.80;;
4232;SDS011;2130;48.472;11.934;2022-10-16T15:07:17;1.00;;;0.80;;
4232;SDS011;2130;48.472;11.934;2022-10-16T15:09:45;2.80;;;0.83;;
4232;SDS011;2130;48.472;11.934;2022-10-16T15:12:15;0.63;;;0.60;;
4232;SDS011;2130;48.472;11.934;2022-10-16T15:14:43;1.30;;;0.90;;
4232;SDS011;2130;48.472;11.934;2022-10-16T15:17:11;1.87;;;0.80;;
4232;SDS011;2130;48.472;11.934;2022-10-16T15:19:42;1.00;;;0.77;;
4232;SDS011;2130;48.472;11.934;2022-10-16T15:22:12;0.87;;;0.80;;
4232;SDS011;2130;48.472;11.934;2022-10-16T15:24:40;0.77;;;0.67;;
4232;SDS011;2130;48.472;11.934;2022-10-16T15:27:08;0.60;;;0.60;;